createdAt,value
2023-05-17T00:01:18.206Z,10.60
2023-05-17T00:03:47.772Z,10.50
2023-05-17T00:06:16.062Z,10.50
2023-05-17T00:08:44.407Z,10.50
2023-05-17T00:11:12.702Z,10.50
2023-05-17T00:13:41.508Z,10.40
2023-05-17T00:16:10.075Z,10.40
2023-05-17T00:18:38.455Z,10.30
2023-05-17T00:21:08.021Z,10.30
2023-05-17T00:23:36.515Z,10.20
2023-05-17T00:26:04.821Z,10.20
2023-05-17T00:28:32.880Z,10.20
2023-05-17T00:31:01.297Z,10.10
2023-05-17T00:33:29.797Z,10.10
2023-05-17T00:35:58.021Z,10.00
2023-05-17T00:38:27.501Z,10.00
2023-05-17T00:40:55.621Z,10.00
2023-05-17T00:43:24.033Z,9.90
2023-05-17T00:45:52.295Z,9.90
2023-05-17T00:48:21.318Z,9.80
2023-05-17T00:50:50.432Z,9.80
2023-05-17T00:53:19.277Z,9.70
2023-05-17T00:55:49.521Z,9.70
2023-05-17T00:58:18.088Z,9.60
2023-05-17T01:01:08.023Z,9.70
2023-05-17T01:03:37.535Z,9.60
2023-05-17T01:06:07.370Z,9.60
2023-05-17T01:08:35.955Z,9.60
2023-05-17T01:11:17.586Z,9.50
2023-05-17T01:13:54.824Z,9.50
2023-05-17T01:16:30.952Z,9.50
2023-05-17T01:19:14.074Z,9.50
2023-05-17T01:21:53.831Z,9.40
2023-05-17T01:24:29.046Z,9.30
2023-05-17T01:27:02.131Z,9.30
2023-05-17T01:29:31.143Z,9.20
2023-05-17T01:32:00.826Z,9.20
2023-05-17T01:34:29.688Z,9.10
2023-05-17T01:36:58.565Z,9.10
2023-05-17T01:39:27.091Z,9.00
2023-05-17T01:42:02.606Z,9.00
2023-05-17T01:44:39.225Z,9.00
2023-05-17T01:47:15.080Z,9.00
2023-05-17T01:49:48.085Z,9.00
2023-05-17T01:52:20.224Z,8.90
2023-05-17T01:54:53.409Z,8.90
2023-05-17T01:57:29.582Z,8.80
2023-05-17T02:00:02.966Z,8.80
2023-05-17T02:02:31.677Z,8.80
2023-05-17T02:04:59.835Z,8.80
2023-05-17T02:07:28.199Z,8.80
2023-05-17T02:09:56.296Z,8.80
2023-05-17T02:12:26.079Z,8.80
2023-05-17T02:14:54.183Z,8.80
2023-05-17T02:17:23.046Z,8.70
2023-05-17T02:19:51.624Z,8.70
2023-05-17T02:22:19.963Z,8.60
2023-05-17T02:24:48.978Z,8.60
2023-05-17T02:27:17.165Z,8.60
2023-05-17T02:29:46.955Z,8.60
2023-05-17T02:32:15.582Z,8.60
2023-05-17T02:34:43.606Z,8.60
2023-05-17T02:37:11.875Z,8.60
2023-05-17T02:39:40.092Z,8.60
2023-05-17T02:42:08.579Z,8.50
2023-05-17T02:44:36.919Z,8.40
2023-05-17T02:47:07.309Z,8.40
2023-05-17T02:49:35.760Z,8.40
2023-05-17T02:52:03.786Z,8.50
2023-05-17T02:54:32.265Z,8.50
2023-05-17T02:57:00.282Z,8.40
2023-05-17T02:59:28.563Z,8.40
2023-05-17T03:01:56.908Z,8.30
2023-05-17T03:04:26.350Z,8.30
2023-05-17T03:06:55.667Z,8.20
2023-05-17T03:09:24.083Z,8.20
2023-05-17T03:11:52.128Z,8.20
2023-05-17T03:14:21.121Z,8.20
2023-05-17T03:16:49.186Z,8.10
2023-05-17T03:19:17.837Z,8.10
2023-05-17T03:21:47.657Z,8.10
2023-05-17T03:24:15.903Z,8.00
2023-05-17T03:26:44.104Z,8.00
2023-05-17T03:29:12.213Z,8.00
2023-05-17T03:31:40.659Z,7.90
2023-05-17T03:34:08.780Z,7.90
2023-05-17T03:36:40.520Z,7.90
2023-05-17T03:39:10.277Z,7.90
2023-05-17T03:41:38.615Z,8.00
2023-05-17T03:44:07.401Z,8.00
2023-05-17T03:46:35.639Z,8.10
2023-05-17T03:49:04.262Z,8.10
2023-05-17T03:51:32.689Z,8.20
2023-05-17T03:54:02.205Z,8.10
2023-05-17T03:56:32.595Z,8.20
2023-05-17T03:59:00.885Z,8.20
2023-05-17T04:01:29.410Z,8.20
2023-05-17T04:03:57.842Z,8.20
2023-05-17T04:06:27.110Z,8.20
2023-05-17T04:08:56.097Z,8.30
2023-05-17T04:11:26.824Z,8.20
2023-05-17T04:13:57.140Z,8.30
2023-05-17T04:16:25.577Z,8.30
2023-05-17T04:18:54.965Z,8.30
2023-05-17T04:21:23.146Z,8.30
2023-05-17T04:23:51.543Z,8.30
2023-05-17T04:26:20.794Z,8.40
2023-05-17T04:28:48.982Z,8.40
2023-05-17T04:31:18.949Z,8.50
2023-05-17T04:33:47.232Z,8.50
2023-05-17T04:36:15.866Z,8.60
2023-05-17T04:38:44.050Z,8.70
2023-05-17T04:41:12.246Z,8.70
2023-05-17T04:43:40.484Z,8.80
2023-05-17T04:46:08.857Z,8.90
2023-05-17T04:48:39.472Z,8.90
2023-05-17T04:51:08.294Z,9.00
2023-05-17T04:53:36.730Z,9.00
2023-05-17T04:56:05.581Z,9.00
2023-05-17T04:58:34.020Z,9.00
2023-05-17T05:01:02.352Z,8.90
2023-05-17T05:03:30.648Z,8.90
2023-05-17T05:06:00.315Z,8.90
2023-05-17T05:08:28.357Z,9.00
2023-05-17T05:10:56.805Z,9.00
2023-05-17T05:13:25.295Z,9.10
2023-05-17T05:15:53.471Z,9.10
2023-05-17T05:18:21.670Z,9.10
2023-05-17T05:20:50.374Z,9.10
2023-05-17T05:23:22.773Z,9.20
2023-05-17T05:25:50.837Z,9.30
2023-05-17T05:28:18.974Z,9.30
2023-05-17T05:30:47.278Z,9.40
2023-05-17T05:33:15.414Z,9.50
2023-05-17T05:35:44.179Z,9.60
2023-05-17T05:38:12.374Z,9.70
2023-05-17T05:40:43.862Z,9.80
2023-05-17T05:43:12.351Z,9.80
2023-05-17T05:45:45.819Z,9.90
2023-05-17T05:48:16.377Z,9.80
2023-05-17T05:50:46.554Z,9.80
2023-05-17T05:53:19.463Z,9.80
2023-05-17T05:55:49.730Z,9.90
2023-05-17T05:58:18.220Z,10.00
2023-05-17T06:00:46.601Z,10.00
2023-05-17T06:03:16.476Z,9.90
2023-05-17T06:05:44.738Z,10.00
2023-05-17T06:08:13.441Z,10.00
2023-05-17T06:10:42.120Z,10.10
2023-05-17T06:13:30.336Z,10.10
2023-05-17T06:16:10.230Z,10.20
2023-05-17T06:18:43.435Z,10.20
2023-05-17T06:21:42.776Z,10.30
2023-05-17T06:24:28.194Z,10.50
2023-05-17T06:27:42.762Z,10.70
2023-05-17T06:30:27.827Z,10.70
2023-05-17T06:33:04.628Z,10.60
2023-05-17T06:59:58.926Z,11.00
2023-05-17T07:02:37.498Z,10.90
2023-05-17T07:05:08.114Z,10.70
2023-05-17T07:07:43.439Z,10.60
2023-05-17T07:10:22.449Z,10.60
2023-05-17T07:12:50.636Z,10.70
2023-05-17T07:15:20.372Z,11.00
2023-05-17T07:17:48.631Z,11.20
2023-05-17T07:20:19.158Z,11.30
2023-05-17T07:22:48.292Z,11.40
2023-05-17T07:25:19.038Z,11.50
2023-05-17T07:27:49.880Z,11.40
2023-05-17T07:30:22.326Z,11.50
2023-05-17T07:32:52.861Z,11.40
2023-05-17T07:35:25.274Z,11.50
2023-05-17T07:37:53.956Z,11.40
2023-05-17T07:40:29.979Z,11.30
2023-05-17T07:42:58.170Z,11.20
2023-05-17T07:45:35.455Z,11.20
2023-05-17T07:48:03.675Z,11.30
2023-05-17T07:50:34.065Z,11.30
2023-05-17T07:53:02.477Z,11.40
2023-05-17T07:55:31.904Z,11.50
2023-05-17T07:57:59.970Z,11.70
2023-05-17T08:00:30.477Z,11.70
2023-05-17T08:02:59.347Z,11.70
2023-05-17T08:05:27.997Z,11.70
2023-05-17T08:08:00.766Z,11.60
2023-05-17T08:10:28.913Z,11.50
2023-05-17T08:13:07.364Z,11.20
2023-05-17T08:15:38.022Z,11.00
2023-05-17T08:18:06.444Z,10.90
2023-05-17T08:20:34.635Z,11.00
2023-05-17T08:23:08.713Z,10.80
2023-05-17T08:25:37.009Z,10.80
2023-05-17T08:28:11.091Z,11.00
2023-05-17T08:30:41.403Z,11.00
2023-05-17T08:33:11.575Z,11.10
2023-05-17T08:35:40.304Z,11.30
2023-05-17T08:38:11.252Z,11.50
2023-05-17T08:40:40.656Z,11.40
2023-05-17T08:43:16.790Z,11.20
2023-05-17T08:45:47.830Z,11.30
2023-05-17T08:48:20.333Z,11.30
2023-05-17T08:50:58.404Z,11.40
2023-05-17T08:53:28.792Z,11.50
2023-05-17T08:56:02.792Z,11.60
2023-05-17T08:58:55.292Z,11.90
2023-05-17T09:01:33.091Z,11.90
2023-05-17T09:04:04.470Z,11.90
2023-05-17T09:06:34.361Z,12.10
2023-05-17T09:09:08.897Z,12.20
2023-05-17T09:12:11.961Z,12.30
2023-05-17T09:14:50.167Z,12.20
2023-05-17T09:17:31.298Z,12.30
2023-05-17T09:20:11.746Z,12.60
2023-05-17T09:22:54.627Z,12.70
2023-05-17T09:25:32.176Z,12.80
2023-05-17T09:31:21.801Z,13.00
2023-05-17T09:33:57.197Z,13.00
2023-05-17T09:36:25.571Z,13.10
2023-05-17T09:39:04.553Z,13.00
2023-05-17T09:41:43.926Z,13.10
2023-05-17T09:44:17.483Z,12.90
2023-05-17T09:46:48.367Z,12.90
2023-05-17T09:49:22.534Z,12.70
2023-05-17T09:51:51.801Z,12.70
2023-05-17T09:54:21.319Z,12.60
2023-05-17T09:57:06.878Z,12.60
2023-05-17T09:59:48.113Z,12.60
2023-05-17T10:02:25.224Z,12.60
2023-05-17T10:04:58.743Z,12.80
2023-05-17T10:07:29.350Z,12.70
2023-05-17T10:09:58.959Z,12.70
2023-05-17T10:12:36.173Z,12.60
2023-05-17T10:15:12.972Z,12.40
2023-05-17T10:17:52.547Z,12.30
2023-05-17T10:20:23.764Z,12.10
2023-05-17T10:22:57.929Z,12.00
2023-05-17T10:25:35.745Z,12.00
2023-05-17T10:28:06.960Z,12.30
2023-05-17T10:30:39.096Z,12.60
2023-05-17T10:33:09.609Z,12.90
2023-05-17T10:35:45.248Z,13.10
2023-05-17T10:38:20.460Z,13.10
2023-05-17T10:40:52.764Z,13.00
2023-05-17T10:43:26.092Z,13.00
2023-05-17T10:45:55.468Z,13.10
2023-05-17T10:48:31.115Z,13.00
2023-05-17T10:51:07.800Z,12.90
2023-05-17T10:54:06.477Z,12.80
2023-05-17T10:56:35.426Z,12.70
2023-05-17T10:59:29.834Z,12.60
2023-05-17T11:02:03.513Z,12.40
2023-05-17T11:04:36.713Z,12.40
2023-05-17T11:07:33.905Z,12.40
2023-05-17T11:10:10.737Z,12.60
2023-05-17T11:12:42.147Z,12.70
2023-05-17T11:15:12.064Z,12.80
2023-05-17T11:17:53.964Z,12.80
2023-05-17T11:20:35.848Z,12.90
2023-05-17T11:23:06.946Z,13.10
2023-05-17T11:25:38.238Z,13.30
2023-05-17T11:28:10.963Z,13.40
2023-05-17T11:30:51.139Z,13.40
2023-05-17T11:33:42.364Z,13.40
2023-05-17T11:36:17.199Z,13.20
2023-05-17T11:38:55.238Z,13.20
2023-05-17T11:41:30.431Z,13.10
2023-05-17T11:44:06.219Z,13.20
2023-05-17T11:46:35.183Z,13.20
2023-05-17T11:49:07.667Z,13.40
2023-05-17T11:51:36.166Z,13.70
2023-05-17T11:54:10.042Z,13.90
2023-05-17T11:56:43.421Z,13.90
2023-05-17T11:59:12.470Z,13.80
2023-05-17T12:01:46.196Z,13.60
2023-05-17T12:04:14.866Z,13.50
2023-05-17T12:06:43.836Z,13.60
2023-05-17T12:09:18.138Z,13.80
2023-05-17T12:11:47.862Z,13.90
2023-05-17T12:14:20.362Z,13.90
2023-05-17T12:17:02.467Z,13.80
2023-05-17T12:19:32.930Z,13.70
2023-05-17T12:22:12.387Z,13.50
2023-05-17T12:24:43.701Z,13.50
2023-05-17T12:27:12.333Z,13.70
2023-05-17T12:29:43.038Z,13.90
2023-05-17T12:32:11.994Z,13.70
2023-05-17T12:34:46.354Z,13.60
2023-05-17T12:37:15.755Z,13.70
2023-05-17T12:39:46.662Z,13.70
2023-05-17T12:42:14.899Z,13.60
2023-05-17T12:44:43.456Z,13.50
2023-05-17T12:47:13.444Z,13.50
2023-05-17T12:49:52.479Z,13.60
2023-05-17T12:52:20.484Z,13.70
2023-05-17T12:54:54.546Z,13.80
2023-05-17T12:57:22.616Z,13.80
2023-05-17T12:59:55.843Z,13.90
2023-05-17T13:02:24.891Z,13.90
2023-05-17T13:04:53.394Z,13.70
2023-05-17T13:07:26.015Z,13.60
2023-05-17T13:10:01.333Z,13.50
2023-05-17T13:12:29.582Z,13.10
2023-05-17T13:14:59.824Z,13.10
2023-05-17T13:17:35.619Z,13.10
2023-05-17T13:20:55.169Z,13.10
2023-05-17T13:23:57.339Z,13.30
2023-05-17T13:30:21.200Z,13.30
2023-05-17T13:33:15.097Z,13.50
2023-05-17T13:36:02.739Z,13.80
2023-05-17T13:38:43.031Z,13.80
2023-05-17T13:41:18.092Z,13.70
2023-05-17T13:44:00.312Z,13.50
2023-05-17T13:46:43.553Z,13.50
2023-05-17T13:49:19.136Z,13.60
2023-05-17T13:51:58.094Z,13.60
2023-05-17T13:54:27.216Z,13.40
2023-05-17T13:57:01.264Z,13.40
2023-05-17T13:59:45.835Z,13.40
2023-05-17T14:02:32.260Z,13.60
2023-05-17T14:05:12.762Z,13.50
2023-05-17T14:07:50.418Z,13.60
2023-05-17T14:10:33.744Z,13.80
2023-05-17T14:13:08.600Z,14.00
2023-05-17T14:15:38.764Z,14.00
2023-05-17T14:18:10.721Z,14.10
2023-05-17T14:20:54.159Z,14.10
2023-05-17T14:23:59.327Z,14.20
2023-05-17T14:26:36.949Z,14.10
2023-05-17T14:29:19.167Z,14.00
2023-05-17T14:32:25.187Z,13.80
2023-05-17T14:35:42.632Z,13.90
2023-05-17T14:38:27.794Z,13.90
2023-05-17T14:41:08.845Z,13.60
2023-05-17T14:43:45.081Z,13.50
2023-05-17T14:50:11.566Z,13.40
2023-05-17T14:59:35.586Z,13.40
2023-05-17T15:02:11.112Z,13.60
2023-05-17T15:04:56.324Z,13.60
2023-05-17T15:10:39.088Z,13.60
2023-05-17T15:14:38.888Z,13.20
2023-05-17T15:17:20.086Z,13.10
2023-05-17T15:20:21.976Z,13.10
2023-05-17T15:22:56.096Z,13.00
2023-05-17T15:25:24.337Z,13.00
2023-05-17T15:27:58.557Z,13.10
2023-05-17T15:30:27.457Z,13.00
2023-05-17T15:33:00.211Z,13.00
2023-05-17T15:35:28.961Z,13.10
2023-05-17T15:38:05.510Z,13.10
2023-05-17T15:40:34.271Z,13.10
2023-05-17T15:43:02.400Z,13.00
2023-05-17T15:45:30.997Z,13.00
2023-05-17T15:48:01.866Z,13.00
2023-05-17T15:50:30.196Z,12.90
2023-05-17T15:53:06.042Z,12.90
2023-05-17T15:55:34.152Z,12.90
2023-05-17T15:58:09.482Z,12.80
2023-05-17T16:00:38.312Z,12.70
2023-05-17T16:03:08.333Z,12.70
2023-05-17T16:05:36.561Z,12.90
2023-05-17T16:08:07.737Z,12.90
2023-05-17T16:10:37.291Z,12.90
2023-05-17T16:13:06.441Z,12.80
2023-05-17T16:15:34.694Z,12.70
2023-05-17T16:18:03.044Z,12.70
2023-05-17T16:20:34.775Z,12.70
2023-05-17T16:23:03.199Z,12.70
2023-05-17T16:25:39.085Z,12.60
2023-05-17T16:28:07.850Z,12.80
2023-05-17T16:30:40.155Z,12.80
2023-05-17T16:33:09.165Z,12.70
2023-05-17T16:35:39.747Z,12.50
2023-05-17T16:38:07.825Z,12.30
2023-05-17T16:40:44.495Z,12.40
2023-05-17T16:43:16.111Z,12.30
2023-05-17T16:45:45.291Z,12.30
2023-05-17T16:48:14.838Z,12.30
2023-05-17T16:50:49.678Z,12.30
2023-05-17T16:53:17.755Z,12.30
2023-05-17T16:55:50.164Z,12.50
2023-05-17T16:58:18.221Z,12.60
2023-05-17T17:00:52.492Z,12.60
2023-05-17T17:03:20.716Z,12.60
2023-05-17T17:05:52.542Z,12.50
2023-05-17T17:08:20.618Z,12.40
2023-05-17T17:10:56.119Z,12.40
2023-05-17T17:13:24.253Z,12.30
2023-05-17T17:15:59.263Z,12.20
2023-05-17T17:18:27.394Z,12.10
2023-05-17T17:20:58.790Z,12.10
2023-05-17T17:23:33.422Z,12.10
2023-05-17T17:26:03.162Z,12.10
2023-05-17T17:28:31.324Z,12.00
2023-05-17T17:31:06.240Z,12.00
2023-05-17T17:33:34.606Z,11.80
2023-05-17T17:36:11.280Z,11.80
2023-05-17T17:38:39.318Z,11.80
2023-05-17T17:41:09.822Z,11.70
2023-05-17T17:43:38.234Z,11.80
2023-05-17T17:46:10.300Z,11.80
2023-05-17T17:48:38.865Z,11.80
2023-05-17T17:51:07.178Z,11.70
2023-05-17T17:53:35.174Z,11.60
2023-05-17T17:56:03.262Z,11.60
2023-05-17T17:58:33.863Z,11.50
2023-05-17T18:01:02.668Z,11.40
2023-05-17T18:03:30.739Z,11.30
2023-05-17T18:05:58.890Z,11.30
2023-05-17T18:08:26.936Z,11.30
2023-05-17T18:10:55.247Z,11.30
2023-05-17T18:13:23.634Z,11.30
2023-05-17T18:15:53.142Z,11.30
2023-05-17T18:18:22.987Z,11.30
2023-05-17T18:20:51.610Z,11.30
2023-05-17T18:23:19.723Z,11.30
2023-05-17T18:25:50.569Z,11.30
2023-05-17T18:28:26.850Z,11.20
2023-05-17T18:31:09.740Z,11.10
2023-05-17T18:33:38.167Z,11.20
2023-05-17T18:36:09.762Z,11.10
2023-05-17T18:38:37.797Z,11.00
2023-05-17T18:41:06.272Z,11.10
2023-05-17T18:43:34.622Z,11.10
2023-05-17T18:46:02.673Z,11.20
2023-05-17T18:48:36.158Z,11.10
2023-05-17T18:51:04.493Z,11.10
2023-05-17T18:53:38.637Z,11.10
2023-05-17T18:56:07.322Z,11.10
2023-05-17T18:58:40.381Z,11.10
2023-05-17T19:01:08.502Z,11.00
2023-05-17T19:03:42.180Z,11.00
2023-05-17T19:06:10.448Z,10.90
2023-05-17T19:08:40.136Z,10.90
2023-05-17T19:11:08.239Z,10.90
2023-05-17T19:13:36.277Z,10.90
2023-05-17T19:16:06.494Z,10.90
2023-05-17T19:18:34.890Z,10.90
2023-05-17T19:21:10.573Z,10.90
2023-05-17T19:23:38.888Z,10.70
2023-05-17T19:26:10.090Z,10.70
2023-05-17T19:28:38.208Z,10.60
2023-05-17T19:31:13.448Z,10.50
2023-05-17T19:33:41.603Z,10.50
2023-05-17T19:36:15.563Z,10.50
2023-05-17T19:38:44.338Z,10.50
2023-05-17T19:41:14.081Z,10.40
2023-05-17T19:43:42.282Z,10.30
2023-05-17T19:46:11.863Z,10.20
2023-05-17T19:48:39.979Z,10.30
2023-05-17T19:51:08.117Z,10.30
2023-05-17T19:53:52.495Z,10.30
2023-05-17T19:56:22.205Z,10.20
2023-05-17T19:58:50.547Z,10.20
2023-05-17T20:01:23.522Z,10.30
2023-05-17T20:03:52.031Z,10.20
2023-05-17T20:06:23.338Z,10.20
2023-05-17T20:08:55.665Z,10.20
2023-05-17T20:11:26.906Z,10.30
2023-05-17T20:13:55.069Z,10.30
2023-05-17T20:16:28.923Z,10.20
2023-05-17T20:18:58.015Z,10.20
2023-05-17T20:21:33.722Z,10.20
2023-05-17T20:24:04.042Z,10.10
2023-05-17T20:26:36.640Z,10.20
2023-05-17T20:29:06.090Z,10.20
2023-05-17T20:31:34.889Z,10.20
2023-05-17T20:34:03.174Z,10.10
2023-05-17T20:36:35.445Z,10.10
2023-05-17T20:39:05.058Z,10.00
2023-05-17T20:41:38.753Z,9.90
2023-05-17T20:44:07.389Z,9.90
2023-05-17T20:46:37.472Z,9.90
2023-05-17T20:49:05.884Z,10.00
2023-05-17T20:51:33.907Z,10.00
2023-05-17T20:54:02.159Z,10.00
2023-05-17T20:56:31.828Z,10.00
2023-05-17T20:59:01.755Z,10.00
2023-05-17T21:01:30.070Z,10.00
2023-05-17T21:03:59.121Z,9.90
2023-05-17T21:06:32.872Z,9.90
2023-05-17T21:09:02.613Z,9.90
2023-05-17T21:11:32.468Z,10.00
2023-05-17T21:14:00.793Z,9.90
2023-05-17T21:16:30.568Z,9.90
2023-05-17T21:18:59.161Z,9.80
2023-05-17T21:21:27.726Z,9.80
2023-05-17T21:23:56.074Z,9.80
2023-05-17T21:26:24.387Z,9.80
2023-05-17T21:28:54.037Z,9.80
2023-05-17T21:31:22.521Z,9.90
2023-05-17T21:33:51.737Z,10.00
2023-05-17T21:36:21.548Z,9.90
2023-05-17T21:38:49.858Z,9.90
2023-05-17T21:41:22.409Z,9.90
2023-05-17T21:43:50.900Z,9.90
2023-05-17T21:46:21.707Z,9.90
2023-05-17T21:48:52.278Z,9.90
2023-05-17T21:51:21.644Z,10.00
2023-05-17T21:53:51.296Z,9.90
2023-05-17T21:56:19.510Z,9.80
2023-05-17T21:58:52.971Z,9.80
2023-05-17T22:01:24.254Z,9.80
2023-05-17T22:03:55.265Z,9.80
2023-05-17T22:06:23.602Z,9.80
2023-05-17T22:08:56.414Z,9.90
2023-05-17T22:11:27.524Z,9.90
2023-05-17T22:13:58.173Z,9.80
2023-05-17T22:16:28.056Z,9.90
2023-05-17T22:18:59.529Z,9.80
2023-05-17T22:21:28.086Z,9.80
2023-05-17T22:23:59.996Z,9.80
2023-05-17T22:26:28.146Z,9.80
2023-05-17T22:28:58.861Z,9.80
2023-05-17T22:31:28.544Z,9.80
2023-05-17T22:33:56.586Z,9.80
2023-05-17T22:36:26.596Z,9.80
2023-05-17T22:38:59.029Z,9.80
2023-05-17T22:41:28.086Z,9.80
2023-05-17T22:43:58.258Z,9.80
2023-05-17T22:46:27.754Z,9.80
2023-05-17T22:48:57.972Z,9.80
2023-05-17T22:51:26.145Z,9.70
2023-05-17T22:53:54.277Z,9.70
2023-05-17T22:56:24.369Z,9.70
2023-05-17T22:58:52.732Z,9.70
2023-05-17T23:01:24.592Z,9.60
2023-05-17T23:03:52.787Z,9.60
2023-05-17T23:06:28.111Z,9.60
2023-05-17T23:08:56.360Z,9.60
2023-05-17T23:11:24.454Z,9.70
2023-05-17T23:13:52.532Z,9.70
2023-05-17T23:16:20.683Z,9.60
2023-05-17T23:18:54.836Z,9.60
2023-05-17T23:21:24.365Z,9.60
2023-05-17T23:23:58.707Z,9.60
2023-05-17T23:26:28.450Z,9.60
2023-05-17T23:28:58.719Z,9.60
2023-05-17T23:31:27.112Z,9.50
2023-05-17T23:33:56.518Z,9.50
2023-05-17T23:36:26.001Z,9.50
2023-05-17T23:38:54.098Z,9.60
2023-05-17T23:41:25.174Z,9.60
2023-05-17T23:43:53.420Z,9.50
2023-05-17T23:46:23.018Z,9.50
2023-05-17T23:48:51.148Z,9.50
2023-05-17T23:51:20.367Z,9.50
2023-05-17T23:53:52.332Z,9.50
2023-05-17T23:56:21.183Z,9.50
2023-05-17T23:58:49.280Z,9.50
